Time;durP1;ratioP1;P1;durP2;ratioP2;P2;SDS_P1;SDS_P2;PMS_P1;PMS_P2;Temp;Humidity;BMP_temperature;BMP_pressure;BME280_temperature;BME280_humidity;BME280_pressure;Samples;Min_cycle;Max_cycle;Signal;HPM_P1;HPM_P2
2021/08/14 00:00:10;;;;;;;;;;;;;;;23.38;52.42;95313.72;2162566;54;19951;-53
2021/08/14 00:02:12;;;;;;;;;;;;;;;23.37;52.42;95320.94;2161877;54;20002;-51
2021/08/14 00:04:13;;;;;;;;;;;;;;;23.48;52.30;95330.06;2162336;47;20472;-49
2021/08/14 00:06:16;;;;;;;;;;;;;;;23.48;52.13;95330.88;2161500;54;19960;-48
2021/08/14 00:08:18;;;;;;;;;;;;;;;23.46;52.09;95324.13;2161696;54;19969;-49
2021/08/14 00:10:20;;;;;;;;;;;;;;;23.43;52.41;95327.25;2162458;47;19971;-47
2021/08/14 00:12:21;;;;;;;;;;;;;;;23.39;52.53;95328.75;2161825;47;20005;-52
2021/08/14 00:14:23;;;;;;;;;;;;;;;23.47;52.31;95336.47;2162358;47;19954;-49
2021/08/14 00:16:24;;;;;;;;;;;;;;;23.55;52.29;95338.00;2161618;47;19946;-49
2021/08/14 00:18:26;;;;;;;;;;;;;;;23.63;52.00;95341.19;2161571;47;19946;-49
2021/08/14 00:20:28;;;;;;;;;;;;;;;23.71;51.59;95338.22;2162639;39;20433;-50
2021/08/14 00:22:29;;;;;;;;;;;;;;;23.79;51.21;95346.97;2163045;54;20006;-52
2021/08/14 00:24:31;;;;;;;;;;;;;;;23.85;51.35;95348.75;2162751;47;19991;-52
2021/08/14 00:26:32;;;;;;;;;;;;;;;23.90;50.74;95346.25;2163035;54;20067;-50
2021/08/14 00:28:34;;;;;;;;;;;;;;;23.84;51.05;95352.50;2162765;47;20913;-55
2021/08/14 00:30:36;;;;;;;;;;;;;;;23.87;50.90;95352.84;2161988;47;19975;-52
2021/08/14 00:32:37;;;;;;;;;;;;;;;23.91;51.03;95351.34;2162885;54;20034;-52
2021/08/14 00:34:39;;;;;;;;;;;;;;;23.96;51.21;95368.59;2161961;54;19954;-52
2021/08/14 00:36:41;;;;;;;;;;;;;;;23.95;51.06;95364.28;2163143;31;20382;-50
2021/08/14 00:38:42;;;;;;;;;;;;;;;23.88;50.88;95364.38;2162562;54;19998;-49
2021/08/14 00:40:44;;;;;;;;;;;;;;;23.86;51.03;95366.47;2162436;54;20478;-48
2021/08/14 00:42:45;;;;;;;;;;;;;;;23.92;50.84;95365.56;2162818;39;20046;-52
2021/08/14 00:44:48;;;;;;;;;;;;;;;23.95;50.78;95366.97;2162314;54;19946;-52
2021/08/14 00:46:49;;;;;;;;;;;;;;;23.81;51.30;95372.50;2162851;54;19973;-47
2021/08/14 00:48:51;;;;;;;;;;;;;;;23.78;51.45;95367.56;2162078;54;20002;-51
2021/08/14 00:50:53;;;;;;;;;;;;;;;23.81;51.17;95374.31;2161837;54;20011;-53
2021/08/14 00:52:55;;;;;;;;;;;;;;;23.87;50.97;95378.78;2162917;54;20479;-50
2021/08/14 00:54:56;;;;;;;;;;;;;;;23.90;51.06;95371.13;2163082;39;20335;-51
2021/08/14 00:56:58;;;;;;;;;;;;;;;23.94;51.10;95368.84;2162446;47;19958;-53
2021/08/14 00:58:59;;;;;;;;;;;;;;;23.93;50.93;95367.19;2162964;39;20282;-49
2021/08/14 01:01:02;;;;;;;;;;;;;;;23.89;51.06;95364.13;2161786;54;20131;-48
2021/08/14 01:03:04;;;;;;;;;;;;;;;23.85;51.40;95359.47;2162182;54;19947;-48
2021/08/14 01:05:06;;;;;;;;;;;;;;;23.89;51.36;95355.28;2161933;54;19947;-48
2021/08/14 01:07:08;;;;;;;;;;;;;;;23.88;50.95;95353.69;2162817;54;20467;-50
2021/08/14 01:09:09;;;;;;;;;;;;;;;23.91;50.78;95358.56;2162772;39;20712;-50
2021/08/14 01:11:11;;;;;;;;;;;;;;;23.93;50.70;95359.16;2162704;54;20034;-52
2021/08/14 01:13:13;;;;;;;;;;;;;;;23.96;50.69;95355.19;2161462;54;19999;-52
2021/08/14 01:15:14;;;;;;;;;;;;;;;23.89;50.74;95355.28;2162394;47;19978;-47
2021/08/14 01:17:16;;;;;;;;;;;;;;;23.86;50.87;95351.22;2161605;54;19977;-50
2021/08/14 01:19:18;;;;;;;;;;;;;;;23.85;51.38;95354.09;2162575;46;20061;-50
2021/08/14 01:21:21;;;;;;;;;;;;;;;23.81;51.53;95351.09;2162116;47;19956;-47
2021/08/14 01:23:22;;;;;;;;;;;;;;;23.81;51.11;95350.25;2162351;54;19963;-48
2021/08/14 01:25:24;;;;;;;;;;;;;;;23.81;51.20;95350.25;2162430;47;19990;-49
2021/08/14 01:27:26;;;;;;;;;;;;;;;23.79;51.05;95349.66;2162158;54;20086;-51
2021/08/14 01:29:27;;;;;;;;;;;;;;;23.81;51.32;95353.75;2162001;54;19954;-52
2021/08/14 01:31:45;;;;;;;;;;;;;;;23.84;51.41;95347.94;2162689;54;20070;-53
2021/08/14 01:33:46;;;;;;;;;;;;;;;23.83;51.20;95350.84;2157473;47;19950;-51
2021/08/14 01:35:48;;;;;;;;;;;;;;;23.81;51.07;95344.91;2162171;54;20022;-48
2021/08/14 01:37:50;;;;;;;;;;;;;;;23.83;51.28;95337.47;2162559;46;19966;-48
2021/08/14 01:39:51;;;;;;;;;;;;;;;23.82;51.26;95343.88;2162137;47;20506;-51
2021/08/14 01:41:54;;;;;;;;;;;;;;;23.83;51.55;95345.50;2162415;54;19986;-47
2021/08/14 01:44:02;;;;;;;;;;;;;;;23.80;51.36;95345.97;2162708;54;19954;-50
2021/08/14 01:46:04;;;;;;;;;;;;;;;23.64;51.91;95342.00;2162314;54;19955;-49
2021/08/14 01:48:06;;;;;;;;;;;;;;;23.56;51.93;95339.66;2162730;47;19959;-48
2021/08/14 01:50:08;;;;;;;;;;;;;;;23.47;52.49;95334.59;2161817;54;20300;-50
2021/08/14 01:52:10;;;;;;;;;;;;;;;23.43;52.48;95335.28;2162641;54;20003;-48
2021/08/14 01:54:12;;;;;;;;;;;;;;;23.37;52.39;95341.50;2162289;47;19955;-51
2021/08/14 01:56:14;;;;;;;;;;;;;;;23.34;52.70;95344.63;2162652;54;19946;-51
2021/08/14 01:58:16;;;;;;;;;;;;;;;23.29;53.08;95347.97;2162624;54;20037;-52
2021/08/14 02:00:17;;;;;;;;;;;;;;;23.30;52.76;95341.59;2162755;47;19994;-50
2021/08/14 02:02:19;;;;;;;;;;;;;;;23.34;52.72;95349.97;2162513;54;20003;-50
2021/08/14 02:04:21;;;;;;;;;;;;;;;23.33;52.97;95349.16;2162614;54;19954;-52
2021/08/14 02:06:23;;;;;;;;;;;;;;;23.36;52.44;95345.22;2161999;47;20542;-50
2021/08/14 02:08:26;;;;;;;;;;;;;;;23.44;52.46;95345.72;2162708;47;20484;-53
2021/08/14 02:10:27;;;;;;;;;;;;;;;23.48;52.33;95346.09;2162621;54;19994;-52
2021/08/14 02:12:29;;;;;;;;;;;;;;;23.49;52.54;95345.09;2162538;54;20067;-52
2021/08/14 02:14:31;;;;;;;;;;;;;;;23.52;52.29;95339.28;2162524;54;19995;-51
2021/08/14 02:16:35;;;;;;;;;;;;;;;23.54;52.36;95336.38;2162179;54;20025;-52
2021/08/14 02:18:37;;;;;;;;;;;;;;;23.52;52.42;95333.91;2161459;54;19951;-49
2021/08/14 02:20:39;;;;;;;;;;;;;;;23.49;52.01;95334.38;2162194;39;20366;-49
2021/08/14 02:22:40;;;;;;;;;;;;;;;23.47;52.00;95334.59;2162287;47;20053;-51
2021/08/14 02:24:42;;;;;;;;;;;;;;;23.45;52.35;95336.69;2162430;47;20034;-49
2021/08/14 02:26:43;;;;;;;;;;;;;;;23.40;51.96;95330.34;2162796;54;19971;-52
2021/08/14 02:28:45;;;;;;;;;;;;;;;23.36;52.01;95329.16;2162248;54;19955;-49
2021/08/14 02:30:46;;;;;;;;;;;;;;;23.30;52.49;95321.00;2162740;54;19998;-49
2021/08/14 02:32:48;;;;;;;;;;;;;;;23.24;52.17;95331.78;2162613;54;19946;-54
2021/08/14 02:34:50;;;;;;;;;;;;;;;23.18;52.88;95333.47;2161953;46;19985;-49
2021/08/14 02:36:52;;;;;;;;;;;;;;;23.17;52.54;95336.41;2162708;52;19950;-51
2021/08/14 02:38:53;;;;;;;;;;;;;;;23.07;52.73;95332.34;2162124;54;20466;-51
2021/08/14 02:40:55;;;;;;;;;;;;;;;23.03;53.25;95341.84;2162585;54;19980;-52
2021/08/14 02:42:57;;;;;;;;;;;;;;;22.98;53.14;95341.69;2162610;54;20183;-47
2021/08/14 02:44:58;;;;;;;;;;;;;;;23.02;53.55;95344.78;2162317;54;20075;-53
2021/08/14 02:47:00;;;;;;;;;;;;;;;22.89;53.42;95346.50;2162338;54;20062;-46
2021/08/14 02:49:02;;;;;;;;;;;;;;;22.84;53.50;95338.34;2162946;39;20422;-49
2021/08/14 02:51:03;;;;;;;;;;;;;;;22.88;53.47;95344.03;2161749;54;19969;-49
2021/08/14 02:53:05;;;;;;;;;;;;;;;22.87;53.73;95345.09;2162694;31;20443;-53
2021/08/14 02:55:07;;;;;;;;;;;;;;;22.86;53.25;95352.25;2162019;54;19955;-49
2021/08/14 02:57:08;;;;;;;;;;;;;;;22.86;53.71;95351.44;2162295;47;19958;-46
2021/08/14 02:59:10;;;;;;;;;;;;;;;22.89;53.05;95354.50;2162515;47;20073;-46
2021/08/14 03:01:11;;;;;;;;;;;;;;;22.86;53.56;95356.78;2162403;47;20038;-48
2021/08/14 03:03:13;;;;;;;;;;;;;;;22.85;53.43;95353.31;2162783;39;20524;-50
2021/08/14 03:05:15;;;;;;;;;;;;;;;22.85;53.10;95365.84;2161758;54;20470;-52
2021/08/14 03:07:17;;;;;;;;;;;;;;;22.79;53.82;95356.84;2162597;54;20396;-51
2021/08/14 03:09:19;;;;;;;;;;;;;;;22.85;53.14;95358.66;2162756;54;20488;-49
2021/08/14 03:11:20;;;;;;;;;;;;;;;22.81;53.35;95359.31;2162907;54;20160;-49
2021/08/14 03:13:22;;;;;;;;;;;;;;;22.82;53.67;95359.09;2162646;54;20014;-49
2021/08/14 03:15:23;;;;;;;;;;;;;;;22.83;53.52;95366.06;2162525;46;19993;-51
2021/08/14 03:17:25;;;;;;;;;;;;;;;22.86;53.20;95368.28;2162274;54;20034;-48
2021/08/14 03:19:27;;;;;;;;;;;;;;;22.84;53.62;95370.38;2160851;54;20811;-47
2021/08/14 03:21:29;;;;;;;;;;;;;;;22.81;53.88;95370.81;2161688;54;19947;-51
2021/08/14 03:23:30;;;;;;;;;;;;;;;22.81;53.77;95370.81;2162415;47;20034;-48
2021/08/14 03:25:32;;;;;;;;;;;;;;;22.81;53.53;95376.16;2162190;54;20034;-53
2021/08/14 03:27:33;;;;;;;;;;;;;;;22.80;53.41;95382.53;2162123;54;19950;-49
2021/08/14 03:29:35;;;;;;;;;;;;;;;22.73;54.13;95384.44;2162488;54;20014;-49
2021/08/14 03:31:37;;;;;;;;;;;;;;;22.68;54.08;95387.75;2162276;39;20061;-52
2021/08/14 03:33:38;;;;;;;;;;;;;;;22.68;53.88;95394.97;2162492;47;19991;-51
2021/08/14 03:35:40;;;;;;;;;;;;;;;22.61;54.36;95391.53;2161729;47;19975;-52
2021/08/14 03:37:42;;;;;;;;;;;;;;;22.55;54.16;95393.22;2162512;54;19946;-53
2021/08/14 03:39:43;;;;;;;;;;;;;;;22.51;54.25;95397.34;2162231;47;20002;-50
2021/08/14 03:41:45;;;;;;;;;;;;;;;22.45;54.89;95396.34;2162333;47;19962;-51
2021/08/14 03:43:47;;;;;;;;;;;;;;;22.46;54.74;95399.84;2162279;47;20412;-50
2021/08/14 03:45:49;;;;;;;;;;;;;;;22.45;54.75;95393.69;2161776;47;19954;-50
2021/08/14 03:47:51;;;;;;;;;;;;;;;22.45;54.34;95392.88;2162634;47;20457;-49
2021/08/14 03:49:52;;;;;;;;;;;;;;;22.41;54.65;95399.66;2161379;54;20484;-48
2021/08/14 03:51:54;;;;;;;;;;;;;;;22.43;54.80;95395.75;2162347;47;19994;-52
2021/08/14 03:53:56;;;;;;;;;;;;;;;22.42;54.58;95404.81;2162240;54;19954;-51
2021/08/14 03:55:58;;;;;;;;;;;;;;;22.44;54.37;95404.59;2162716;46;20042;-49
2021/08/14 03:57:59;;;;;;;;;;;;;;;22.46;54.23;95405.19;2161952;47;19951;-52
2021/08/14 04:00:02;;;;;;;;;;;;;;;22.40;54.71;95404.19;2162181;47;20058;-48
2021/08/14 04:02:03;;;;;;;;;;;;;;;22.23;55.18;95406.56;2162659;31;20456;-49
2021/08/14 04:04:05;;;;;;;;;;;;;;;22.08;55.60;95406.00;2161931;54;20122;-50
2021/08/14 04:06:07;;;;;;;;;;;;;;;21.64;56.94;95411.13;2161192;47;19994;-48
2021/08/14 04:08:08;;;;;;;;;;;;;;;21.73;56.53;95413.56;2162119;47;19946;-49
2021/08/14 04:10:10;;;;;;;;;;;;;;;21.82;56.35;95414.94;2163007;39;20368;-48
2021/08/14 04:12:12;;;;;;;;;;;;;;;21.88;56.03;95411.44;2162255;54;20400;-48
2021/08/14 04:14:13;;;;;;;;;;;;;;;21.29;57.98;95423.88;2162485;39;20377;-49
2021/08/14 04:16:15;;;;;;;;;;;;;;;21.20;58.44;95423.28;2161730;54;19966;-46
2021/08/14 04:18:17;;;;;;;;;;;;;;;21.41;57.91;95424.06;2162081;47;19995;-52
2021/08/14 04:20:18;;;;;;;;;;;;;;;21.30;58.46;95424.72;2160868;54;19947;-49
2021/08/14 04:22:20;;;;;;;;;;;;;;;21.34;58.05;95424.09;2162077;47;19974;-47
2021/08/14 04:24:22;;;;;;;;;;;;;;;21.32;58.10;95426.16;2162524;54;20526;-49
2021/08/14 04:26:23;;;;;;;;;;;;;;;21.64;57.42;95420.97;2162024;54;19998;-46
2021/08/14 04:28:25;;;;;;;;;;;;;;;22.23;55.72;95427.91;2162311;47;20006;-48
2021/08/14 04:30:26;;;;;;;;;;;;;;;22.54;54.73;95418.25;2161160;54;19974;-49
2021/08/14 04:32:33;;;;;;;;;;;;;;;22.65;54.23;95416.75;2162241;47;20090;-52
2021/08/14 04:34:35;;;;;;;;;;;;;;;22.77;53.81;95423.03;2161768;47;19954;-52
2021/08/14 04:36:36;;;;;;;;;;;;;;;22.84;53.83;95423.81;2162404;39;20142;-48
2021/08/14 04:38:38;;;;;;;;;;;;;;;22.85;53.74;95420.09;2161006;54;19958;-51
2021/08/14 04:40:39;;;;;;;;;;;;;;;22.82;53.51;95417.88;2162083;54;19995;-48
2021/08/14 04:42:41;;;;;;;;;;;;;;;22.81;53.79;95416.22;2162382;54;19954;-50
2021/08/14 04:44:43;;;;;;;;;;;;;;;22.87;53.50;95417.22;2161330;54;19954;-50
2021/08/14 04:46:45;;;;;;;;;;;;;;;22.88;53.63;95408.97;2161608;54;20002;-51
2021/08/14 04:48:47;;;;;;;;;;;;;;;22.93;53.51;95407.50;2161635;54;19954;-51
2021/08/14 04:50:48;;;;;;;;;;;;;;;22.93;53.48;95412.84;2161796;47;20020;-50
2021/08/14 04:52:50;;;;;;;;;;;;;;;22.88;53.59;95408.16;2161245;31;20449;-49
2021/08/14 04:54:52;;;;;;;;;;;;;;;22.79;53.76;95404.94;2162187;54;19946;-49
2021/08/14 04:56:54;;;;;;;;;;;;;;;22.87;53.75;95410.00;2162366;47;19951;-48
2021/08/14 04:58:55;;;;;;;;;;;;;;;22.94;53.69;95406.47;2162091;54;20074;-50
2021/08/14 05:00:57;;;;;;;;;;;;;;;23.01;53.08;95404.56;2162199;54;20467;-50
2021/08/14 05:02:59;;;;;;;;;;;;;;;22.85;53.59;95406.72;2163383;46;19966;-48
2021/08/14 05:05:01;;;;;;;;;;;;;;;22.57;54.89;95407.16;2162156;47;20066;-52
2021/08/14 05:07:04;;;;;;;;;;;;;;;22.23;55.39;95411.88;2162641;47;19946;-50
2021/08/14 05:09:05;;;;;;;;;;;;;;;21.73;57.31;95413.56;2163120;54;20219;-47
2021/08/14 05:11:07;;;;;;;;;;;;;;;21.33;57.96;95410.97;2162491;54;19976;-50
2021/08/14 05:13:09;;;;;;;;;;;;;;;20.83;59.86;95417.59;2162994;46;20448;-51
2021/08/14 05:15:10;;;;;;;;;;;;;;;20.66;61.00;95421.69;2162368;54;19998;-50
2021/08/14 05:17:12;;;;;;;;;;;;;;;20.79;60.53;95423.53;2162909;47;19951;-53
2021/08/14 05:19:14;;;;;;;;;;;;;;;20.97;59.91;95417.56;2162588;54;20073;-48
2021/08/14 05:21:16;;;;;;;;;;;;;;;20.78;60.40;95417.41;2162155;31;20395;-51
2021/08/14 05:23:17;;;;;;;;;;;;;;;20.92;60.14;95426.19;2163033;54;20064;-51
2021/08/14 05:25:19;;;;;;;;;;;;;;;20.60;60.72;95427.81;2162511;54;20427;-50
2021/08/14 05:27:20;;;;;;;;;;;;;;;20.16;62.45;95432.63;2162613;47;20339;-48
2021/08/14 05:29:22;;;;;;;;;;;;;;;20.50;61.61;95422.03;2163047;54;19946;-49
2021/08/14 05:31:24;;;;;;;;;;;;;;;20.96;60.27;95421.28;2162344;54;20054;-48
2021/08/14 05:33:25;;;;;;;;;;;;;;;21.30;58.96;95417.53;2163202;39;20298;-52
2021/08/14 05:35:27;;;;;;;;;;;;;;;21.54;58.22;95421.41;2161738;51;19946;-50
2021/08/14 05:37:29;;;;;;;;;;;;;;;21.80;57.21;95409.81;2162635;47;19958;-49
2021/08/14 05:39:30;;;;;;;;;;;;;;;21.52;57.88;95426.13;2162730;54;19954;-50
2021/08/14 05:41:37;;;;;;;;;;;;;;;21.34;58.13;95413.44;2162939;39;20362;-50
2021/08/14 05:43:38;;;;;;;;;;;;;;;21.32;58.74;95422.66;2162946;54;19971;-51
2021/08/14 05:45:40;;;;;;;;;;;;;;;21.27;58.62;95424.13;2162332;54;20443;-50
2021/08/14 05:47:41;;;;;;;;;;;;;;;21.24;58.89;95418.38;2162668;54;20002;-50
2021/08/14 05:49:43;;;;;;;;;;;;;;;21.09;59.32;95425.78;2162066;54;19946;-48
2021/08/14 05:51:45;;;;;;;;;;;;;;;21.41;58.21;95424.06;2162507;47;19954;-55
2021/08/14 05:53:49;;;;;;;;;;;;;;;21.53;58.13;95425.13;2163285;39;20447;-53
2021/08/14 05:55:50;;;;;;;;;;;;;;;21.36;58.29;95426.53;2162399;54;19972;-54
2021/08/14 05:57:54;;;;;;;;;;;;;;;21.42;58.22;95428.41;2162498;54;20061;-53
2021/08/14 05:59:55;;;;;;;;;;;;;;;21.66;57.75;95418.88;2162529;54;20070;-52
2021/08/14 06:01:57;;;;;;;;;;;;;;;21.91;56.95;95415.53;2162676;47;19959;-53
2021/08/14 06:03:59;;;;;;;;;;;;;;;22.19;56.17;95425.84;2162646;54;19947;-53
2021/08/14 06:06:01;;;;;;;;;;;;;;;22.49;55.38;95424.25;2161749;54;19958;-48
2021/08/14 06:08:03;;;;;;;;;;;;;;;22.65;55.20;95420.25;2162492;54;19946;-52
2021/08/14 06:10:06;;;;;;;;;;;;;;;22.77;54.71;95427.56;2162726;39;20246;-48
2021/08/14 06:12:10;;;;;;;;;;;;;;;22.87;54.17;95418.03;2162572;39;20211;-50
2021/08/14 06:14:11;;;;;;;;;;;;;;;22.94;54.45;95417.97;2162631;54;19947;-49
2021/08/14 06:16:15;;;;;;;;;;;;;;;23.12;54.01;95419.06;2161971;54;19994;-51
2021/08/14 06:18:17;;;;;;;;;;;;;;;23.19;53.76;95419.81;2162019;54;19947;-48
2021/08/14 06:20:18;;;;;;;;;;;;;;;23.14;53.83;95417.81;2162220;50;20660;-51
2021/08/14 06:22:20;;;;;;;;;;;;;;;23.29;53.50;95422.81;2161892;54;20439;-49
2021/08/14 06:24:22;;;;;;;;;;;;;;;23.40;52.77;95421.25;2162391;51;20002;-51
2021/08/14 06:26:23;;;;;;;;;;;;;;;23.34;53.24;95416.78;2162200;54;20006;-49
2021/08/14 06:28:25;;;;;;;;;;;;;;;23.29;53.37;95420.13;2162700;54;19958;-51
2021/08/14 06:30:27;;;;;;;;;;;;;;;23.40;53.20;95426.63;2162377;54;20006;-50
2021/08/14 06:32:28;;;;;;;;;;;;;;;23.18;53.74;95416.34;2162529;54;20511;-50
2021/08/14 06:34:30;;;;;;;;;;;;;;;22.90;54.63;95416.75;2162566;54;19951;-51
2021/08/14 06:36:31;;;;;;;;;;;;;;;22.81;55.08;95418.88;2161949;54;19950;-53
2021/08/14 06:38:33;;;;;;;;;;;;;;;23.02;53.99;95420.41;2162210;54;19950;-54
2021/08/14 06:40:35;;;;;;;;;;;;;;;23.08;54.38;95413.34;2162542;47;20463;-49
2021/08/14 06:42:36;;;;;;;;;;;;;;;23.40;53.15;95421.25;2162360;47;19954;-55
2021/08/14 06:44:38;;;;;;;;;;;;;;;23.21;53.44;95423.09;2162216;54;19975;-50
2021/08/14 06:46:39;;;;;;;;;;;;;;;22.94;54.46;95417.97;2162400;47;20011;-49
2021/08/14 06:48:41;;;;;;;;;;;;;;;22.60;55.19;95420.06;2162664;54;19990;-50
2021/08/14 06:50:43;;;;;;;;;;;;;;;22.73;54.94;95424.50;2161361;54;19950;-50
2021/08/14 06:52:49;;;;;;;;;;;;;;;23.04;54.18;95422.84;2162474;47;20054;-51
2021/08/14 06:54:51;;;;;;;;;;;;;;;23.29;53.73;95418.28;2162544;54;20616;-51
2021/08/14 06:56:53;;;;;;;;;;;;;;;23.41;53.16;95423.72;2162412;54;19950;-49
2021/08/14 06:58:55;;;;;;;;;;;;;;;23.17;53.49;95424.59;2162521;47;20427;-50
2021/08/14 07:00:56;;;;;;;;;;;;;;;23.19;53.56;95417.16;2161859;54;19998;-48
2021/08/14 07:02:58;;;;;;;;;;;;;;;23.11;53.65;95415.59;2162650;46;19996;-50
2021/08/14 07:05:01;;;;;;;;;;;;;;;23.30;53.56;95417.25;2162201;39;20323;-51
2021/08/14 07:07:03;;;;;;;;;;;;;;;23.68;52.65;95418.06;2162462;47;20019;-48
2021/08/14 07:09:05;;;;;;;;;;;;;;;24.01;51.89;95419.59;2162832;54;19954;-50
2021/08/14 07:11:06;;;;;;;;;;;;;;;24.14;50.84;95413.25;2162000;54;20025;-49
2021/08/14 07:13:08;;;;;;;;;;;;;;;24.01;51.31;95407.00;2162421;54;19998;-49
2021/08/14 07:15:10;;;;;;;;;;;;;;;24.03;50.88;95420.19;2161801;54;19954;-50
2021/08/14 07:17:16;;;;;;;;;;;;;;;23.90;51.49;95408.59;2162495;47;19953;-50
2021/08/14 07:19:18;;;;;;;;;;;;;;;23.88;51.28;95415.22;2162601;54;19954;-48
2021/08/14 07:21:20;;;;;;;;;;;;;;;23.99;51.30;95411.78;2161795;54;19950;-49
2021/08/14 07:23:22;;;;;;;;;;;;;;;24.10;50.91;95412.88;2161271;54;19954;-49
2021/08/14 07:25:23;;;;;;;;;;;;;;;24.25;50.09;95415.97;2161624;48;19950;-49
2021/08/14 07:27:25;;;;;;;;;;;;;;;24.44;50.02;95407.88;2162525;54;19951;-46
2021/08/14 07:29:27;;;;;;;;;;;;;;;24.45;49.49;95404.94;2162042;54;19955;-50
2021/08/14 07:31:28;;;;;;;;;;;;;;;24.55;49.18;95401.75;2162440;39;20006;-48
2021/08/14 07:33:30;;;;;;;;;;;;;;;24.82;48.53;95396.78;2162166;54;20050;-48
2021/08/14 07:35:32;;;;;;;;;;;;;;;25.04;48.65;95396.25;2161983;39;20440;-49
2021/08/14 07:37:33;;;;;;;;;;;;;;;25.31;47.90;95401.97;2162496;39;20423;-49
2021/08/14 07:39:35;;;;;;;;;;;;;;;25.50;47.21;95405.34;2162165;54;19964;-53
2021/08/14 07:41:37;;;;;;;;;;;;;;;25.58;47.04;95404.19;2162215;54;20062;-53
2021/08/14 07:43:39;;;;;;;;;;;;;;;25.63;46.87;95407.75;2162519;54;20451;-52
2021/08/14 07:45:40;;;;;;;;;;;;;;;25.77;46.48;95405.66;2161416;54;19978;-51
2021/08/14 07:47:42;;;;;;;;;;;;;;;25.88;46.24;95401.31;2162394;54;20071;-50
2021/08/14 07:49:44;;;;;;;;;;;;;;;26.13;45.89;95396.44;2161542;54;21294;-52
2021/08/14 07:51:45;;;;;;;;;;;;;;;26.10;45.16;95404.97;2162634;39;20057;-49
2021/08/14 07:53:47;;;;;;;;;;;;;;;26.09;44.91;95406.06;2162103;46;20057;-48
2021/08/14 07:55:49;;;;;;;;;;;;;;;26.00;45.24;95395.91;2162511;54;19988;-53
2021/08/14 07:57:51;;;;;;;;;;;;;;;25.84;45.57;95397.47;2162566;54;19951;-50
2021/08/14 07:59:55;;;;;;;;;;;;;;;26.00;44.71;95401.28;2161855;54;19950;-51
2021/08/14 08:01:56;;;;;;;;;;;;;;;26.17;44.31;95401.34;2162185;54;20046;-51
2021/08/14 08:03:58;;;;;;;;;;;;;;;25.97;44.12;95396.41;2162590;54;19947;-50
2021/08/14 08:06:00;;;;;;;;;;;;;;;26.25;43.99;95399.09;2162080;39;20433;-50
2021/08/14 08:08:02;;;;;;;;;;;;;;;26.42;43.65;95396.44;2162333;54;19955;-50
2021/08/14 08:10:07;;;;;;;;;;;;;;;26.40;43.57;95401.25;2162140;39;20417;-49
2021/08/14 08:12:09;;;;;;;;;;;;;;;26.17;44.30;95395.97;2162303;54;20477;-46
2021/08/14 08:14:10;;;;;;;;;;;;;;;26.01;44.47;95393.00;2161909;47;20734;-51
2021/08/14 08:16:12;;;;;;;;;;;;;;;25.86;45.02;95384.63;2161803;39;20179;-48
2021/08/14 08:18:13;;;;;;;;;;;;;;;26.06;44.51;95389.59;2162269;54;20479;-51
2021/08/14 08:20:15;;;;;;;;;;;;;;;26.32;43.92;95388.19;2160959;47;19971;-50
2021/08/14 08:22:17;;;;;;;;;;;;;;;26.48;42.85;95390.09;2162213;54;19950;-52
2021/08/14 08:24:19;;;;;;;;;;;;;;;26.67;42.55;95384.53;2161433;39;20340;-50
2021/08/14 08:26:20;;;;;;;;;;;;;;;26.92;41.97;95382.25;2162095;54;20034;-51
2021/08/14 08:28:22;;;;;;;;;;;;;;;27.11;40.96;95384.69;2161934;54;20002;-50
2021/08/14 08:30:24;;;;;;;;;;;;;;;26.88;39.21;95386.47;2161647;54;20068;-48
2021/08/14 08:32:25;;;;;;;;;;;;;;;26.87;39.02;95384.88;2162338;54;20471;-51
2021/08/14 08:34:27;;;;;;;;;;;;;;;26.99;38.26;95378.59;2161871;47;19954;-50
2021/08/14 08:36:28;;;;;;;;;;;;;;;26.78;39.64;95375.59;2162406;54;19954;-49
2021/08/14 08:38:30;;;;;;;;;;;;;;;26.57;40.91;95376.31;2162510;47;20055;-53
2021/08/14 08:40:32;;;;;;;;;;;;;;;26.38;41.47;95371.13;2162506;54;19958;-48
2021/08/14 08:42:34;;;;;;;;;;;;;;;26.30;41.12;95377.69;2162655;46;19956;-49
2021/08/14 08:44:35;;;;;;;;;;;;;;;26.53;40.75;95368.69;2162911;54;19962;-52
2021/08/14 08:46:38;;;;;;;;;;;;;;;26.75;39.96;95374.19;2162764;54;20038;-51
2021/08/14 08:48:43;;;;;;;;;;;;;;;27.10;39.02;95372.28;2162254;54;19954;-48
2021/08/14 08:50:46;;;;;;;;;;;;;;;27.43;36.79;95366.06;2161778;54;19951;-48
2021/08/14 08:52:47;;;;;;;;;;;;;;;27.14;36.99;95365.38;2162824;54;20075;-51
2021/08/14 08:54:50;;;;;;;;;;;;;;;27.18;36.34;95363.81;2163045;46;19946;-50
2021/08/14 08:56:52;;;;;;;;;;;;;;;27.33;36.43;95364.06;2162552;54;20057;-51
2021/08/14 08:58:53;;;;;;;;;;;;;;;27.62;36.04;95369.28;2162667;54;20556;-50
2021/08/14 09:00:55;;;;;;;;;;;;;;;27.71;36.22;95372.34;2162511;54;19947;-50
2021/08/14 09:03:23;;;;;;;;;;;;;;;28.03;35.71;95363.56;2162822;47;19950;-52
2021/08/14 09:05:25;;;;;;;;;;;;;;;28.22;35.28;95366.75;2161784;47;19946;-51
2021/08/14 09:07:27;;;;;;;;;;;;;;;28.50;34.95;95363.00;2162773;54;20026;-49
2021/08/14 09:09:30;;;;;;;;;;;;;;;28.54;34.22;95364.94;2162647;54;20046;-50
2021/08/14 09:11:31;;;;;;;;;;;;;;;28.71;34.06;95358.63;2162290;54;19994;-47
2021/08/14 09:13:33;;;;;;;;;;;;;;;28.79;34.05;95361.66;2162848;54;19970;-49
2021/08/14 09:15:35;;;;;;;;;;;;;;;28.93;34.27;95362.03;2162057;47;19950;-54
2021/08/14 09:17:37;;;;;;;;;;;;;;;29.07;33.42;95350.78;2162896;54;19953;-50
2021/08/14 09:19:38;;;;;;;;;;;;;;;28.80;33.59;95346.28;2162506;39;20433;-51
2021/08/14 09:21:40;;;;;;;;;;;;;;;28.73;33.82;95349.19;2162766;54;20162;-49
2021/08/14 09:23:42;;;;;;;;;;;;;;;28.84;34.36;95341.19;2163045;31;20383;-54
2021/08/14 09:25:45;;;;;;;;;;;;;;;29.01;34.30;95344.53;2161427;54;19950;-50
2021/08/14 09:27:50;;;;;;;;;;;;;;;29.17;34.12;95345.50;2163564;31;20554;-51
2021/08/14 09:29:52;;;;;;;;;;;;;;;29.18;33.90;95342.53;2161924;54;20035;-51
2021/08/14 09:31:55;;;;;;;;;;;;;;;29.34;33.43;95338.03;2162333;47;19946;-52
2021/08/14 09:34:13;;;;;;;;;;;;;;;29.29;33.06;95346.09;2163210;47;23457;-50
2021/08/14 09:36:15;;;;;;;;;;;;;;;29.03;32.78;95338.91;2161057;54;19950;-50
2021/08/14 09:38:17;;;;;;;;;;;;;;;28.40;34.00;95336.75;2162648;54;20010;-47
2021/08/14 09:40:25;;;;;;;;;;;;;;;27.79;35.20;95339.59;2162862;39;20066;-50
2021/08/14 09:42:27;;;;;;;;;;;;;;;27.77;35.72;95333.66;2162002;54;20031;-48
2021/08/14 09:44:29;;;;;;;;;;;;;;;27.93;34.89;95331.97;2162967;31;20516;-49
2021/08/14 09:46:41;;;;;;;;;;;;;;;27.87;34.19;95333.78;2162340;54;20038;-50
2021/08/14 09:48:43;;;;;;;;;;;;;;;28.18;34.73;95329.56;2162634;46;19970;-49
2021/08/14 09:50:45;;;;;;;;;;;;;;;28.58;33.83;95322.13;2160812;54;20030;-50
2021/08/14 09:52:51;;;;;;;;;;;;;;;28.88;33.63;95326.13;2162884;47;19947;-49
2021/08/14 09:54:54;;;;;;;;;;;;;;;29.06;33.23;95319.47;2162190;54;19953;-48
2021/08/14 09:56:57;;;;;;;;;;;;;;;29.33;33.31;95319.41;2162433;54;19947;-51
2021/08/14 09:58:59;;;;;;;;;;;;;;;29.49;32.57;95317.59;2162273;54;20038;-52
2021/08/14 10:01:01;;;;;;;;;;;;;;;29.64;31.70;95312.25;2162883;39;20427;-51
2021/08/14 10:03:04;;;;;;;;;;;;;;;29.49;31.33;95304.91;2162935;47;20278;-50
2021/08/14 10:05:06;;;;;;;;;;;;;;;29.22;31.39;95296.16;2161286;54;19974;-51
2021/08/14 10:07:08;;;;;;;;;;;;;;;28.50;33.26;95301.03;2162559;47;19946;-48
2021/08/14 10:09:10;;;;;;;;;;;;;;;27.97;34.39;95303.50;2162733;46;19986;-50
2021/08/14 10:11:13;;;;;;;;;;;;;;;28.17;34.35;95300.16;2161840;47;19971;-47
2021/08/14 10:13:15;;;;;;;;;;;;;;;28.50;33.66;95293.78;2162069;54;20534;-51
2021/08/14 10:15:17;;;;;;;;;;;;;;;28.67;33.39;95290.09;2161873;47;20384;-55
2021/08/14 10:17:24;;;;;;;;;;;;;;;28.81;33.06;95288.59;2161903;47;19946;-64
2021/08/14 10:19:25;;;;;;;;;;;;;;;29.06;33.08;95290.66;2162508;46;20451;-65
2021/08/14 10:21:27;;;;;;;;;;;;;;;29.06;32.99;95293.34;2161280;54;20041;-65
2021/08/14 10:23:29;;;;;;;;;;;;;;;29.25;32.52;95290.22;2162426;46;19962;-65
2021/08/14 10:25:31;;;;;;;;;;;;;;;29.52;32.08;95281.97;2161321;47;19947;-64
2021/08/14 10:27:49;;;;;;;;;;;;;;;29.58;31.75;95286.31;2161161;54;20042;-64
2021/08/14 10:29:58;;;;;;;;;;;;;;;29.43;31.79;95278.97;2162633;54;19950;-65
2021/08/14 10:31:59;;;;;;;;;;;;;;;29.43;32.06;95272.75;2160962;47;20003;-64
2021/08/14 10:34:10;;;;;;;;;;;;;;;29.51;32.02;95274.94;2162103;54;19971;-65
2021/08/14 10:36:18;;;;;;;;;;;;;;;29.71;31.60;95269.66;2161480;46;19973;-64